sensor_id;sensor_type;location;lat;lon;timestamp;P1;durP1;ratioP1;P2;durP2;ratioP2
68523;SDS011;55524;51.380;13.372;2024-03-29T00:01:33;1.33;;;0.73;;
68523;SDS011;55524;51.380;13.372;2024-03-29T00:04:00;0.85;;;0.75;;
68523;SDS011;55524;51.380;13.372;2024-03-29T00:06:26;0.95;;;0.70;;
68523;SDS011;55524;51.380;13.372;2024-03-29T00:08:52;4.05;;;0.70;;
68523;SDS011;55524;51.380;13.372;2024-03-29T00:11:18;4.60;;;0.80;;
68523;SDS011;55524;51.380;13.372;2024-03-29T00:13:44;1.80;;;0.80;;
68523;SDS011;55524;51.380;13.372;2024-03-29T00:16:11;1.17;;;0.70;;
68523;SDS011;55524;51.380;13.372;2024-03-29T00:18:37;2.50;;;0.80;;
68523;SDS011;55524;51.380;13.372;2024-03-29T00:21:03;0.85;;;0.70;;
68523;SDS011;55524;51.380;13.372;2024-03-29T00:23:30;2.17;;;0.80;;
68523;SDS011;55524;51.380;13.372;2024-03-29T00:25:56;1.02;;;0.77;;
68523;SDS011;55524;51.380;13.372;2024-03-29T00:28:23;1.63;;;0.60;;
68523;SDS011;55524;51.380;13.372;2024-03-29T00:30:50;0.80;;;0.60;;
68523;SDS011;55524;51.380;13.372;2024-03-29T00:33:16;1.48;;;0.70;;
68523;SDS011;55524;51.380;13.372;2024-03-29T00:35:42;3.30;;;0.90;;
68523;SDS011;55524;51.380;13.372;2024-03-29T00:38:08;0.85;;;0.60;;
68523;SDS011;55524;51.380;13.372;2024-03-29T00:40:38;0.98;;;0.50;;
68523;SDS011;55524;51.380;13.372;2024-03-29T00:43:04;1.15;;;0.80;;
68523;SDS011;55524;51.380;13.372;2024-03-29T00:45:30;1.27;;;0.70;;
68523;SDS011;55524;51.380;13.372;2024-03-29T00:47:56;0.95;;;0.60;;
68523;SDS011;55524;51.380;13.372;2024-03-29T00:50:22;3.38;;;0.75;;
68523;SDS011;55524;51.380;13.372;2024-03-29T00:52:49;2.60;;;0.73;;
68523;SDS011;55524;51.380;13.372;2024-03-29T00:55:15;0.68;;;0.60;;
68523;SDS011;55524;51.380;13.372;2024-03-29T00:57:42;5.28;;;0.80;;
68523;SDS011;55524;51.380;13.372;2024-03-29T01:00:09;2.28;;;0.93;;
68523;SDS011;55524;51.380;13.372;2024-03-29T01:02:35;0.95;;;0.63;;
68523;SDS011;55524;51.380;13.372;2024-03-29T01:05:02;3.22;;;0.60;;
68523;SDS011;55524;51.380;13.372;2024-03-29T01:07:29;0.88;;;0.65;;
68523;SDS011;55524;51.380;13.372;2024-03-29T01:09:55;1.10;;;0.60;;
68523;SDS011;55524;51.380;13.372;2024-03-29T01:12:21;4.07;;;1.00;;
68523;SDS011;55524;51.380;13.372;2024-03-29T01:14:48;2.13;;;1.00;;
68523;SDS011;55524;51.380;13.372;2024-03-29T01:17:14;2.80;;;0.90;;
68523;SDS011;55524;51.380;13.372;2024-03-29T01:19:40;0.80;;;0.68;;
68523;SDS011;55524;51.380;13.372;2024-03-29T01:22:06;1.23;;;0.80;;
68523;SDS011;55524;51.380;13.372;2024-03-29T01:24:33;0.60;;;0.60;;
68523;SDS011;55524;51.380;13.372;2024-03-29T01:26:59;0.85;;;0.68;;
68523;SDS011;55524;51.380;13.372;2024-03-29T01:29:26;1.48;;;0.90;;
68523;SDS011;55524;51.380;13.372;2024-03-29T01:31:53;2.33;;;0.88;;
68523;SDS011;55524;51.380;13.372;2024-03-29T01:34:19;2.65;;;1.10;;
68523;SDS011;55524;51.380;13.372;2024-03-29T01:36:45;3.05;;;0.70;;
68523;SDS011;55524;51.380;13.372;2024-03-29T01:39:12;2.30;;;0.80;;
68523;SDS011;55524;51.380;13.372;2024-03-29T01:41:40;0.70;;;0.70;;
68523;SDS011;55524;51.380;13.372;2024-03-29T01:44:07;1.38;;;0.70;;
68523;SDS011;55524;51.380;13.372;2024-03-29T01:46:34;1.95;;;1.25;;
68523;SDS011;55524;51.380;13.372;2024-03-29T01:49:02;0.77;;;0.77;;
68523;SDS011;55524;51.380;13.372;2024-03-29T01:51:29;0.88;;;0.50;;
68523;SDS011;55524;51.380;13.372;2024-03-29T01:53:57;0.80;;;0.65;;
68523;SDS011;55524;51.380;13.372;2024-03-29T01:56:25;1.45;;;0.70;;
68523;SDS011;55524;51.380;13.372;2024-03-29T01:58:52;1.52;;;0.55;;
68523;SDS011;55524;51.380;13.372;2024-03-29T02:01:22;1.60;;;0.50;;
68523;SDS011;55524;51.380;13.372;2024-03-29T02:03:50;1.45;;;0.65;;
68523;SDS011;55524;51.380;13.372;2024-03-29T02:06:18;2.63;;;0.77;;
68523;SDS011;55524;51.380;13.372;2024-03-29T02:08:44;3.60;;;0.70;;
68523;SDS011;55524;51.380;13.372;2024-03-29T02:11:12;4.40;;;0.73;;
68523;SDS011;55524;51.380;13.372;2024-03-29T02:13:38;1.00;;;0.80;;
68523;SDS011;55524;51.380;13.372;2024-03-29T02:16:05;1.30;;;0.80;;
68523;SDS011;55524;51.380;13.372;2024-03-29T02:18:31;1.80;;;0.70;;
68523;SDS011;55524;51.380;13.372;2024-03-29T02:20:57;0.80;;;0.60;;
68523;SDS011;55524;51.380;13.372;2024-03-29T02:23:27;0.80;;;0.50;;
68523;SDS011;55524;51.380;13.372;2024-03-29T02:25:55;0.57;;;0.57;;
68523;SDS011;55524;51.380;13.372;2024-03-29T02:28:24;1.63;;;0.60;;
68523;SDS011;55524;51.380;13.372;2024-03-29T02:30:51;5.28;;;1.08;;
68523;SDS011;55524;51.380;13.372;2024-03-29T02:33:17;1.63;;;0.55;;
68523;SDS011;55524;51.380;13.372;2024-03-29T02:35:46;2.38;;;0.68;;
68523;SDS011;55524;51.380;13.372;2024-03-29T02:38:12;1.83;;;0.90;;
68523;SDS011;55524;51.380;13.372;2024-03-29T02:40:38;1.83;;;0.80;;
68523;SDS011;55524;51.380;13.372;2024-03-29T02:43:05;1.17;;;0.60;;
68523;SDS011;55524;51.380;13.372;2024-03-29T02:45:32;0.85;;;0.65;;
68523;SDS011;55524;51.380;13.372;2024-03-29T02:47:59;4.57;;;0.60;;
68523;SDS011;55524;51.380;13.372;2024-03-29T02:50:26;1.30;;;0.68;;
68523;SDS011;55524;51.380;13.372;2024-03-29T02:52:52;0.93;;;0.65;;
68523;SDS011;55524;51.380;13.372;2024-03-29T02:55:18;1.10;;;0.70;;
68523;SDS011;55524;51.380;13.372;2024-03-29T02:57:44;0.68;;;0.57;;
68523;SDS011;55524;51.380;13.372;2024-03-29T03:00:11;1.98;;;0.63;;
68523;SDS011;55524;51.380;13.372;2024-03-29T03:02:38;1.65;;;0.70;;
68523;SDS011;55524;51.380;13.372;2024-03-29T03:05:05;1.05;;;0.60;;
68523;SDS011;55524;51.380;13.372;2024-03-29T03:07:32;3.05;;;0.60;;
68523;SDS011;55524;51.380;13.372;2024-03-29T03:10:18;5.70;;;0.90;;
68523;SDS011;55524;51.380;13.372;2024-03-29T03:13:02;1.40;;;0.60;;
68523;SDS011;55524;51.380;13.372;2024-03-29T03:15:29;1.60;;;0.70;;
68523;SDS011;55524;51.380;13.372;2024-03-29T03:17:55;2.15;;;0.70;;
68523;SDS011;55524;51.380;13.372;2024-03-29T03:20:21;2.08;;;0.60;;
68523;SDS011;55524;51.380;13.372;2024-03-29T03:22:50;2.70;;;0.80;;
68523;SDS011;55524;51.380;13.372;2024-03-29T03:25:17;0.70;;;0.70;;
68523;SDS011;55524;51.380;13.372;2024-03-29T03:27:43;1.42;;;0.70;;
68523;SDS011;55524;51.380;13.372;2024-03-29T03:30:09;4.05;;;0.75;;
68523;SDS011;55524;51.380;13.372;2024-03-29T03:32:36;0.57;;;0.50;;
68523;SDS011;55524;51.380;13.372;2024-03-29T03:35:02;1.75;;;0.65;;
68523;SDS011;55524;51.380;13.372;2024-03-29T03:37:29;2.10;;;0.60;;
68523;SDS011;55524;51.380;13.372;2024-03-29T03:39:55;0.75;;;0.70;;
68523;SDS011;55524;51.380;13.372;2024-03-29T03:42:22;3.42;;;0.90;;
68523;SDS011;55524;51.380;13.372;2024-03-29T03:44:49;1.05;;;0.57;;
68523;SDS011;55524;51.380;13.372;2024-03-29T03:47:15;4.57;;;0.70;;
68523;SDS011;55524;51.380;13.372;2024-03-29T03:49:42;0.65;;;0.52;;
68523;SDS011;55524;51.380;13.372;2024-03-29T03:52:09;2.50;;;0.80;;
68523;SDS011;55524;51.380;13.372;2024-03-29T03:54:35;0.93;;;0.68;;
68523;SDS011;55524;51.380;13.372;2024-03-29T03:57:02;0.75;;;0.75;;
68523;SDS011;55524;51.380;13.372;2024-03-29T03:59:29;1.67;;;0.80;;
68523;SDS011;55524;51.380;13.372;2024-03-29T04:01:55;1.83;;;0.60;;
68523;SDS011;55524;51.380;13.372;2024-03-29T04:04:22;2.42;;;0.80;;
68523;SDS011;55524;51.380;13.372;2024-03-29T04:06:48;4.50;;;0.90;;
68523;SDS011;55524;51.380;13.372;2024-03-29T04:09:14;1.63;;;0.80;;
68523;SDS011;55524;51.380;13.372;2024-03-29T04:11:41;4.35;;;1.00;;
68523;SDS011;55524;51.380;13.372;2024-03-29T04:14:08;1.13;;;0.82;;
68523;SDS011;55524;51.380;13.372;2024-03-29T04:16:34;2.05;;;1.13;;
68523;SDS011;55524;51.380;13.372;2024-03-29T04:19:00;1.50;;;0.70;;
68523;SDS011;55524;51.380;13.372;2024-03-29T04:21:27;1.67;;;0.77;;
68523;SDS011;55524;51.380;13.372;2024-03-29T04:23:53;2.47;;;0.90;;
68523;SDS011;55524;51.380;13.372;2024-03-29T04:26:19;1.92;;;0.90;;
68523;SDS011;55524;51.380;13.372;2024-03-29T04:28:45;3.45;;;1.20;;
68523;SDS011;55524;51.380;13.372;2024-03-29T04:31:12;116.88;;;31.90;;
68523;SDS011;55524;51.380;13.372;2024-03-29T04:33:38;183.32;;;47.00;;
68523;SDS011;55524;51.380;13.372;2024-03-29T04:36:04;79.25;;;22.67;;
68523;SDS011;55524;51.380;13.372;2024-03-29T04:38:31;102.88;;;34.00;;
68523;SDS011;55524;51.380;13.372;2024-03-29T04:40:58;71.72;;;24.08;;
68523;SDS011;55524;51.380;13.372;2024-03-29T04:43:26;8.57;;;4.13;;
68523;SDS011;55524;51.380;13.372;2024-03-29T04:46:07;9.52;;;3.10;;
68523;SDS011;55524;51.380;13.372;2024-03-29T04:51:01;4.40;;;1.48;;
68523;SDS011;55524;51.380;13.372;2024-03-29T04:53:28;4.22;;;1.45;;
68523;SDS011;55524;51.380;13.372;2024-03-29T04:55:55;1.90;;;0.90;;
68523;SDS011;55524;51.380;13.372;2024-03-29T04:58:25;1.58;;;0.70;;
68523;SDS011;55524;51.380;13.372;2024-03-29T05:00:52;1.85;;;0.88;;
68523;SDS011;55524;51.380;13.372;2024-03-29T05:03:20;3.65;;;0.98;;
68523;SDS011;55524;51.380;13.372;2024-03-29T05:05:47;2.22;;;0.80;;
68523;SDS011;55524;51.380;13.372;2024-03-29T05:08:15;2.80;;;0.73;;
68523;SDS011;55524;51.380;13.372;2024-03-29T05:10:43;3.00;;;0.70;;
68523;SDS011;55524;51.380;13.372;2024-03-29T05:13:09;0.88;;;0.68;;
68523;SDS011;55524;51.380;13.372;2024-03-29T05:15:35;2.25;;;0.73;;
68523;SDS011;55524;51.380;13.372;2024-03-29T05:18:02;1.50;;;0.82;;
68523;SDS011;55524;51.380;13.372;2024-03-29T05:20:29;3.55;;;1.80;;
68523;SDS011;55524;51.380;13.372;2024-03-29T05:22:56;5.53;;;2.20;;
68523;SDS011;55524;51.380;13.372;2024-03-29T05:25:25;1.33;;;0.70;;
68523;SDS011;55524;51.380;13.372;2024-03-29T05:27:52;1.63;;;0.63;;
68523;SDS011;55524;51.380;13.372;2024-03-29T05:30:18;2.40;;;0.65;;
68523;SDS011;55524;51.380;13.372;2024-03-29T05:32:45;1.65;;;0.73;;
68523;SDS011;55524;51.380;13.372;2024-03-29T05:35:11;0.68;;;0.60;;
68523;SDS011;55524;51.380;13.372;2024-03-29T05:37:39;3.70;;;0.82;;
68523;SDS011;55524;51.380;13.372;2024-03-29T05:40:05;0.90;;;0.70;;
68523;SDS011;55524;51.380;13.372;2024-03-29T05:42:32;0.82;;;0.70;;
68523;SDS011;55524;51.380;13.372;2024-03-29T05:45:01;2.25;;;0.70;;
68523;SDS011;55524;51.380;13.372;2024-03-29T05:47:29;2.42;;;0.70;;
68523;SDS011;55524;51.380;13.372;2024-03-29T05:49:55;2.00;;;0.80;;
68523;SDS011;55524;51.380;13.372;2024-03-29T05:52:22;2.03;;;0.70;;
68523;SDS011;55524;51.380;13.372;2024-03-29T05:54:48;2.10;;;0.80;;
68523;SDS011;55524;51.380;13.372;2024-03-29T05:57:15;2.85;;;0.95;;
68523;SDS011;55524;51.380;13.372;2024-03-29T05:59:41;2.63;;;0.80;;
68523;SDS011;55524;51.380;13.372;2024-03-29T06:02:08;1.40;;;1.00;;
68523;SDS011;55524;51.380;13.372;2024-03-29T06:04:34;5.22;;;0.82;;
68523;SDS011;55524;51.380;13.372;2024-03-29T06:07:03;1.00;;;0.80;;
68523;SDS011;55524;51.380;13.372;2024-03-29T06:09:30;1.75;;;1.00;;
68523;SDS011;55524;51.380;13.372;2024-03-29T06:12:00;1.98;;;1.30;;
68523;SDS011;55524;51.380;13.372;2024-03-29T06:14:26;2.00;;;1.38;;
68523;SDS011;55524;51.380;13.372;2024-03-29T06:17:11;2.35;;;1.30;;
68523;SDS011;55524;51.380;13.372;2024-03-29T06:22:17;1.75;;;1.23;;
68523;SDS011;55524;51.380;13.372;2024-03-29T06:24:43;2.17;;;0.80;;
68523;SDS011;55524;51.380;13.372;2024-03-29T06:27:10;1.98;;;1.00;;
68523;SDS011;55524;51.380;13.372;2024-03-29T06:29:36;1.65;;;1.10;;
68523;SDS011;55524;51.380;13.372;2024-03-29T06:32:03;3.50;;;1.00;;
68523;SDS011;55524;51.380;13.372;2024-03-29T06:34:32;5.28;;;1.80;;
68523;SDS011;55524;51.380;13.372;2024-03-29T06:36:58;4.35;;;2.42;;
68523;SDS011;55524;51.380;13.372;2024-03-29T06:39:25;1.45;;;1.20;;
68523;SDS011;55524;51.380;13.372;2024-03-29T06:41:52;3.67;;;1.10;;
68523;SDS011;55524;51.380;13.372;2024-03-29T06:44:18;4.07;;;1.30;;
68523;SDS011;55524;51.380;13.372;2024-03-29T06:46:47;1.92;;;0.90;;
68523;SDS011;55524;51.380;13.372;2024-03-29T06:49:14;0.77;;;0.60;;
68523;SDS011;55524;51.380;13.372;2024-03-29T06:51:40;1.42;;;0.80;;
68523;SDS011;55524;51.380;13.372;2024-03-29T06:54:06;1.00;;;0.73;;
68523;SDS011;55524;51.380;13.372;2024-03-29T06:56:32;2.40;;;0.90;;
68523;SDS011;55524;51.380;13.372;2024-03-29T06:58:59;0.88;;;0.80;;
68523;SDS011;55524;51.380;13.372;2024-03-29T07:01:25;1.40;;;0.90;;
68523;SDS011;55524;51.380;13.372;2024-03-29T07:03:51;1.42;;;0.70;;
68523;SDS011;55524;51.380;13.372;2024-03-29T07:06:18;1.67;;;0.80;;
68523;SDS011;55524;51.380;13.372;2024-03-29T07:08:44;2.17;;;0.80;;
68523;SDS011;55524;51.380;13.372;2024-03-29T07:11:12;2.05;;;1.00;;
68523;SDS011;55524;51.380;13.372;2024-03-29T07:13:38;2.67;;;1.00;;
68523;SDS011;55524;51.380;13.372;2024-03-29T07:16:04;1.80;;;1.20;;
68523;SDS011;55524;51.380;13.372;2024-03-29T07:18:34;1.25;;;0.70;;
68523;SDS011;55524;51.380;13.372;2024-03-29T07:21:00;1.88;;;0.90;;
68523;SDS011;55524;51.380;13.372;2024-03-29T07:23:26;4.22;;;1.17;;
68523;SDS011;55524;51.380;13.372;2024-03-29T07:25:59;1.10;;;1.00;;
68523;SDS011;55524;51.380;13.372;2024-03-29T07:28:27;2.13;;;1.10;;
68523;SDS011;55524;51.380;13.372;2024-03-29T07:30:54;1.27;;;0.90;;
68523;SDS011;55524;51.380;13.372;2024-03-29T07:33:24;5.60;;;1.38;;
68523;SDS011;55524;51.380;13.372;2024-03-29T07:35:53;1.45;;;1.08;;
68523;SDS011;55524;51.380;13.372;2024-03-29T07:38:23;1.48;;;0.90;;
68523;SDS011;55524;51.380;13.372;2024-03-29T07:40:50;2.70;;;1.00;;
68523;SDS011;55524;51.380;13.372;2024-03-29T07:43:20;3.30;;;1.08;;
68523;SDS011;55524;51.380;13.372;2024-03-29T07:45:47;2.13;;;1.00;;
68523;SDS011;55524;51.380;13.372;2024-03-29T07:48:15;1.67;;;1.00;;
68523;SDS011;55524;51.380;13.372;2024-03-29T07:50:42;11.23;;;1.23;;
68523;SDS011;55524;51.380;13.372;2024-03-29T07:53:10;2.90;;;1.30;;
68523;SDS011;55524;51.380;13.372;2024-03-29T07:55:40;3.67;;;1.13;;
68523;SDS011;55524;51.380;13.372;2024-03-29T07:58:06;5.70;;;1.17;;
68523;SDS011;55524;51.380;13.372;2024-03-29T08:00:39;3.13;;;1.08;;
68523;SDS011;55524;51.380;13.372;2024-03-29T08:03:06;2.13;;;1.20;;
68523;SDS011;55524;51.380;13.372;2024-03-29T08:05:33;6.38;;;1.55;;
68523;SDS011;55524;51.380;13.372;2024-03-29T08:07:59;1.63;;;1.10;;
68523;SDS011;55524;51.380;13.372;2024-03-29T08:10:26;1.40;;;1.02;;
68523;SDS011;55524;51.380;13.372;2024-03-29T08:12:52;2.10;;;1.23;;
68523;SDS011;55524;51.380;13.372;2024-03-29T08:15:18;1.70;;;1.20;;
68523;SDS011;55524;51.380;13.372;2024-03-29T08:17:45;5.47;;;1.20;;
68523;SDS011;55524;51.380;13.372;2024-03-29T08:20:12;2.97;;;1.17;;
68523;SDS011;55524;51.380;13.372;2024-03-29T08:22:38;1.02;;;0.88;;
68523;SDS011;55524;51.380;13.372;2024-03-29T08:25:04;1.65;;;1.10;;
68523;SDS011;55524;51.380;13.372;2024-03-29T08:27:31;1.38;;;1.05;;
68523;SDS011;55524;51.380;13.372;2024-03-29T08:29:57;3.80;;;1.05;;
68523;SDS011;55524;51.380;13.372;2024-03-29T08:32:24;1.50;;;0.82;;
68523;SDS011;55524;51.380;13.372;2024-03-29T08:34:50;2.25;;;1.10;;
68523;SDS011;55524;51.380;13.372;2024-03-29T08:37:17;2.40;;;1.08;;
68523;SDS011;55524;51.380;13.372;2024-03-29T08:39:43;2.30;;;0.98;;
68523;SDS011;55524;51.380;13.372;2024-03-29T08:42:10;1.70;;;1.30;;
68523;SDS011;55524;51.380;13.372;2024-03-29T08:44:37;2.20;;;0.88;;
68523;SDS011;55524;51.380;13.372;2024-03-29T08:47:04;4.03;;;0.98;;
68523;SDS011;55524;51.380;13.372;2024-03-29T08:49:30;2.67;;;1.20;;
68523;SDS011;55524;51.380;13.372;2024-03-29T08:51:57;1.95;;;1.05;;
68523;SDS011;55524;51.380;13.372;2024-03-29T08:54:25;3.13;;;1.00;;
68523;SDS011;55524;51.380;13.372;2024-03-29T08:56:53;3.58;;;1.00;;
68523;SDS011;55524;51.380;13.372;2024-03-29T08:59:19;1.83;;;0.90;;
68523;SDS011;55524;51.380;13.372;2024-03-29T09:01:45;1.77;;;0.70;;
68523;SDS011;55524;51.380;13.372;2024-03-29T09:04:16;1.55;;;0.80;;
68523;SDS011;55524;51.380;13.372;2024-03-29T09:06:43;1.90;;;1.20;;
68523;SDS011;55524;51.380;13.372;2024-03-29T09:09:12;1.95;;;1.10;;
68523;SDS011;55524;51.380;13.372;2024-03-29T09:11:41;2.28;;;1.13;;
68523;SDS011;55524;51.380;13.372;2024-03-29T09:14:08;5.63;;;1.00;;
68523;SDS011;55524;51.380;13.372;2024-03-29T09:16:34;1.52;;;0.90;;
68523;SDS011;55524;51.380;13.372;2024-03-29T09:19:01;3.50;;;0.88;;
68523;SDS011;55524;51.380;13.372;2024-03-29T09:21:27;2.50;;;0.98;;
68523;SDS011;55524;51.380;13.372;2024-03-29T09:23:53;2.00;;;0.82;;
68523;SDS011;55524;51.380;13.372;2024-03-29T09:26:20;0.82;;;0.80;;
68523;SDS011;55524;51.380;13.372;2024-03-29T09:28:46;5.90;;;2.50;;
68523;SDS011;55524;51.380;13.372;2024-03-29T09:31:12;2.03;;;1.25;;
68523;SDS011;55524;51.380;13.372;2024-03-29T09:33:38;2.40;;;1.20;;
68523;SDS011;55524;51.380;13.372;2024-03-29T09:36:05;0.88;;;0.73;;
68523;SDS011;55524;51.380;13.372;2024-03-29T09:38:31;1.40;;;0.77;;
68523;SDS011;55524;51.380;13.372;2024-03-29T09:41:10;1.52;;;1.20;;
68523;SDS011;55524;51.380;13.372;2024-03-29T09:43:41;4.00;;;0.70;;
68523;SDS011;55524;51.380;13.372;2024-03-29T09:46:11;10.15;;;3.13;;
68523;SDS011;55524;51.380;13.372;2024-03-29T09:48:41;2.88;;;1.40;;
68523;SDS011;55524;51.380;13.372;2024-03-29T09:51:11;0.47;;;0.43;;
68523;SDS011;55524;51.380;13.372;2024-03-29T09:53:41;0.85;;;0.60;;
68523;SDS011;55524;51.380;13.372;2024-03-29T09:56:09;1.45;;;0.90;;
68523;SDS011;55524;51.380;13.372;2024-03-29T09:58:36;0.90;;;0.70;;
68523;SDS011;55524;51.380;13.372;2024-03-29T10:01:04;1.58;;;0.88;;
68523;SDS011;55524;51.380;13.372;2024-03-29T10:03:31;0.93;;;0.70;;
68523;SDS011;55524;51.380;13.372;2024-03-29T10:06:01;1.30;;;0.82;;
68523;SDS011;55524;51.380;13.372;2024-03-29T10:08:33;8.10;;;1.27;;
68523;SDS011;55524;51.380;13.372;2024-03-29T10:11:00;9.45;;;1.33;;
68523;SDS011;55524;51.380;13.372;2024-03-29T10:13:28;22.92;;;2.63;;
68523;SDS011;55524;51.380;13.372;2024-03-29T10:15:55;14.63;;;1.88;;
68523;SDS011;55524;51.380;13.372;2024-03-29T10:18:22;3.05;;;1.20;;
68523;SDS011;55524;51.380;13.372;2024-03-29T10:20:59;13.95;;;1.77;;
68523;SDS011;55524;51.380;13.372;2024-03-29T10:26:50;11.95;;;1.77;;
68523;SDS011;55524;51.380;13.372;2024-03-29T10:29:17;6.80;;;1.50;;
68523;SDS011;55524;51.380;13.372;2024-03-29T10:31:43;6.68;;;1.17;;
68523;SDS011;55524;51.380;13.372;2024-03-29T10:34:09;3.33;;;1.20;;
68523;SDS011;55524;51.380;13.372;2024-03-29T10:36:35;1.67;;;1.30;;
68523;SDS011;55524;51.380;13.372;2024-03-29T10:39:10;6.50;;;1.20;;
68523;SDS011;55524;51.380;13.372;2024-03-29T10:41:39;35.03;;;3.85;;
68523;SDS011;55524;51.380;13.372;2024-03-29T10:44:10;1.55;;;0.80;;
68523;SDS011;55524;51.380;13.372;2024-03-29T10:46:37;0.70;;;0.70;;
68523;SDS011;55524;51.380;13.372;2024-03-29T10:49:08;0.70;;;0.55;;
68523;SDS011;55524;51.380;13.372;2024-03-29T10:51:39;0.82;;;0.65;;
68523;SDS011;55524;51.380;13.372;2024-03-29T10:54:09;0.95;;;0.68;;
68523;SDS011;55524;51.380;13.372;2024-03-29T10:56:37;2.00;;;0.90;;
68523;SDS011;55524;51.380;13.372;2024-03-29T10:59:17;0.88;;;0.88;;
68523;SDS011;55524;51.380;13.372;2024-03-29T11:01:56;0.98;;;0.90;;
68523;SDS011;55524;51.380;13.372;2024-03-29T11:04:34;2.33;;;0.60;;
68523;SDS011;55524;51.380;13.372;2024-03-29T11:07:06;0.50;;;0.50;;
68523;SDS011;55524;51.380;13.372;2024-03-29T11:09:38;0.75;;;0.60;;
68523;SDS011;55524;51.380;13.372;2024-03-29T11:12:07;0.90;;;0.65;;
68523;SDS011;55524;51.380;13.372;2024-03-29T11:14:43;1.25;;;0.70;;
68523;SDS011;55524;51.380;13.372;2024-03-29T11:17:13;2.33;;;0.75;;
68523;SDS011;55524;51.380;13.372;2024-03-29T11:19:40;2.00;;;0.60;;
68523;SDS011;55524;51.380;13.372;2024-03-29T11:22:08;2.45;;;0.90;;
68523;SDS011;55524;51.380;13.372;2024-03-29T11:24:35;0.70;;;0.70;;
68523;SDS011;55524;51.380;13.372;2024-03-29T11:27:11;2.58;;;1.10;;
68523;SDS011;55524;51.380;13.372;2024-03-29T11:29:40;2.70;;;1.10;;
68523;SDS011;55524;51.380;13.372;2024-03-29T11:32:08;2.47;;;1.08;;
68523;SDS011;55524;51.380;13.372;2024-03-29T11:34:35;3.22;;;0.95;;
68523;SDS011;55524;51.380;13.372;2024-03-29T11:37:14;1.10;;;0.60;;
68523;SDS011;55524;51.380;13.372;2024-03-29T11:39:46;3.47;;;0.80;;
68523;SDS011;55524;51.380;13.372;2024-03-29T11:42:13;1.35;;;0.90;;
68523;SDS011;55524;51.380;13.372;2024-03-29T11:44:40;0.93;;;0.80;;
68523;SDS011;55524;51.380;13.372;2024-03-29T11:47:06;1.92;;;0.75;;
68523;SDS011;55524;51.380;13.372;2024-03-29T11:49:34;2.42;;;0.80;;
68523;SDS011;55524;51.380;13.372;2024-03-29T11:52:04;1.55;;;0.95;;
68523;SDS011;55524;51.380;13.372;2024-03-29T11:54:38;1.02;;;0.80;;
68523;SDS011;55524;51.380;13.372;2024-03-29T11:57:04;1.42;;;0.80;;
68523;SDS011;55524;51.380;13.372;2024-03-29T11:59:30;2.33;;;1.00;;
68523;SDS011;55524;51.380;13.372;2024-03-29T12:01:57;1.13;;;0.80;;
68523;SDS011;55524;51.380;13.372;2024-03-29T12:04:23;1.30;;;1.00;;
68523;SDS011;55524;51.380;13.372;2024-03-29T12:06:49;2.58;;;1.23;;
68523;SDS011;55524;51.380;13.372;2024-03-29T12:09:15;1.05;;;0.80;;
68523;SDS011;55524;51.380;13.372;2024-03-29T12:11:44;2.90;;;1.02;;
68523;SDS011;55524;51.380;13.372;2024-03-29T12:14:12;12.97;;;1.13;;
68523;SDS011;55524;51.380;13.372;2024-03-29T12:16:44;1.90;;;1.00;;
68523;SDS011;55524;51.380;13.372;2024-03-29T12:19:21;3.58;;;0.90;;
68523;SDS011;55524;51.380;13.372;2024-03-29T12:21:52;1.35;;;0.70;;
68523;SDS011;55524;51.380;13.372;2024-03-29T12:24:19;1.95;;;1.13;;
68523;SDS011;55524;51.380;13.372;2024-03-29T12:26:47;0.80;;;0.80;;
68523;SDS011;55524;51.380;13.372;2024-03-29T12:29:15;2.00;;;0.90;;
68523;SDS011;55524;51.380;13.372;2024-03-29T12:31:41;0.80;;;0.80;;
68523;SDS011;55524;51.380;13.372;2024-03-29T12:34:07;1.58;;;0.90;;
68523;SDS011;55524;51.380;13.372;2024-03-29T12:36:34;1.23;;;0.60;;
68523;SDS011;55524;51.380;13.372;2024-03-29T12:39:00;3.28;;;0.80;;
68523;SDS011;55524;51.380;13.372;2024-03-29T12:41:31;2.15;;;0.60;;
68523;SDS011;55524;51.380;13.372;2024-03-29T12:44:00;1.45;;;0.63;;
68523;SDS011;55524;51.380;13.372;2024-03-29T12:46:27;0.95;;;0.88;;
68523;SDS011;55524;51.380;13.372;2024-03-29T12:48:57;1.63;;;0.60;;
68523;SDS011;55524;51.380;13.372;2024-03-29T12:51:24;1.87;;;0.70;;
68523;SDS011;55524;51.380;13.372;2024-03-29T12:53:51;1.00;;;0.70;;
68523;SDS011;55524;51.380;13.372;2024-03-29T12:56:18;2.05;;;0.80;;
68523;SDS011;55524;51.380;13.372;2024-03-29T12:58:44;5.82;;;0.90;;
68523;SDS011;55524;51.380;13.372;2024-03-29T13:01:11;1.27;;;0.85;;
68523;SDS011;55524;51.380;13.372;2024-03-29T13:03:37;1.45;;;0.93;;
68523;SDS011;55524;51.380;13.372;2024-03-29T13:06:06;0.65;;;0.65;;
68523;SDS011;55524;51.380;13.372;2024-03-29T13:08:32;4.63;;;0.80;;
68523;SDS011;55524;51.380;13.372;2024-03-29T13:11:00;1.30;;;0.70;;
68523;SDS011;55524;51.380;13.372;2024-03-29T13:13:26;2.78;;;0.57;;
68523;SDS011;55524;51.380;13.372;2024-03-29T13:15:53;1.83;;;0.85;;
68523;SDS011;55524;51.380;13.372;2024-03-29T13:18:19;1.52;;;0.80;;
68523;SDS011;55524;51.380;13.372;2024-03-29T13:20:45;7.07;;;1.23;;
68523;SDS011;55524;51.380;13.372;2024-03-29T13:23:11;1.98;;;0.80;;
68523;SDS011;55524;51.380;13.372;2024-03-29T13:25:39;0.95;;;0.77;;
68523;SDS011;55524;51.380;13.372;2024-03-29T13:28:05;1.30;;;0.73;;
68523;SDS011;55524;51.380;13.372;2024-03-29T13:30:35;0.77;;;0.75;;
68523;SDS011;55524;51.380;13.372;2024-03-29T13:33:08;2.20;;;0.88;;
68523;SDS011;55524;51.380;13.372;2024-03-29T13:35:35;0.70;;;0.70;;
68523;SDS011;55524;51.380;13.372;2024-03-29T13:38:02;1.02;;;0.80;;
68523;SDS011;55524;51.380;13.372;2024-03-29T13:40:29;2.35;;;0.73;;
68523;SDS011;55524;51.380;13.372;2024-03-29T13:42:57;1.05;;;0.80;;
68523;SDS011;55524;51.380;13.372;2024-03-29T13:45:23;5.70;;;0.77;;
68523;SDS011;55524;51.380;13.372;2024-03-29T13:47:52;1.15;;;0.90;;
68523;SDS011;55524;51.380;13.372;2024-03-29T13:50:20;1.08;;;0.90;;
68523;SDS011;55524;51.380;13.372;2024-03-29T13:52:46;1.30;;;0.70;;
68523;SDS011;55524;51.380;13.372;2024-03-29T13:55:12;2.90;;;0.77;;
68523;SDS011;55524;51.380;13.372;2024-03-29T13:57:39;7.90;;;1.33;;
68523;SDS011;55524;51.380;13.372;2024-03-29T14:00:07;1.15;;;0.70;;
68523;SDS011;55524;51.380;13.372;2024-03-29T14:02:38;1.58;;;0.68;;
68523;SDS011;55524;51.380;13.372;2024-03-29T14:05:04;1.38;;;0.70;;
68523;SDS011;55524;51.380;13.372;2024-03-29T14:07:31;3.38;;;0.70;;
68523;SDS011;55524;51.380;13.372;2024-03-29T14:09:57;1.58;;;0.60;;
68523;SDS011;55524;51.380;13.372;2024-03-29T14:12:24;11.10;;;1.10;;
68523;SDS011;55524;51.380;13.372;2024-03-29T14:14:53;1.65;;;0.88;;
68523;SDS011;55524;51.380;13.372;2024-03-29T14:17:19;3.88;;;1.00;;
68523;SDS011;55524;51.380;13.372;2024-03-29T14:19:46;0.70;;;0.70;;
68523;SDS011;55524;51.380;13.372;2024-03-29T14:22:16;0.60;;;0.60;;
68523;SDS011;55524;51.380;13.372;2024-03-29T14:24:48;2.25;;;0.70;;
68523;SDS011;55524;51.380;13.372;2024-03-29T14:27:14;1.00;;;0.75;;
68523;SDS011;55524;51.380;13.372;2024-03-29T14:29:40;2.90;;;0.90;;
68523;SDS011;55524;51.380;13.372;2024-03-29T14:32:10;3.25;;;0.80;;
68523;SDS011;55524;51.380;13.372;2024-03-29T14:34:36;4.90;;;1.10;;
68523;SDS011;55524;51.380;13.372;2024-03-29T14:37:04;1.17;;;0.82;;
68523;SDS011;55524;51.380;13.372;2024-03-29T14:39:31;3.15;;;1.00;;
68523;SDS011;55524;51.380;13.372;2024-03-29T14:41:57;13.38;;;1.98;;
68523;SDS011;55524;51.380;13.372;2024-03-29T14:44:26;4.32;;;1.40;;